Allen Park, MI

5:49 PM EDT on August 22, 2014 (GMT -0400)
Dearborn Headquarters | Change Station
CLOSE
Current Station
Personal Weather Station
Location: Dearborn, Mi
Elevation: 597 ft
Nearby Weather Stations

Elev 597 ft 42.31 °N, 83.20 °W | Updated 5 seconds ago

Mostly Cloudy
Mostly Cloudy
81.7 °F
Feels Like 80 °F
N
0.0
Wind Variable Wind from East
Gusts 0.0 mph

Today
High -- | Low -- °F
--% Chance of Precip.
Yesterday
High -- | Low -- °F
Precip. -- in
6:47 AM 8:23 PM
Waning Crescent, 6% visible
Pressure 29.96 in
Visibility 10.0 miles
Clouds Scattered Clouds 4000 ft
Mostly Cloudy 7000 ft
Mostly Cloudy 20000 ft
Heat Index 80 °F
Dew Point 42 °F
Humidity 25%
Rainfall 0.02 in
Snow Depth Not available.
UV 2 out of 12
Pollen 8.40 out of 12
Ozone Good
PM2.5 Moderate
Flu Activity Not available.
METAR KDTW 222053Z COR 07005KT 10SM SCT040 BKN070 BKN200 28/20 A2996 RMK SLPNO T02830200

More Conditions Fewer Conditions

Pressure 29.96 in
Visibility 10.0 miles
Clouds Scattered Clouds 4000 ft
Mostly Cloudy 7000 ft
Mostly Cloudy 20000 ft
Heat Index 80 °F
Dew Point 42 °F
Humidity 25%
Rainfall 0.02 in
Snow Depth Not available.
UV 2 out of 12
Pollen 8.40 out of 12
Ozone Good
PM2.5 Moderate
Flu Activity Not available.
METAR KDTW 222053Z COR 07005KT 10SM SCT040 BKN070 BKN200 28/20 A2996 RMK SLPNO T02830200

More Conditions Fewer Conditions

10-Day Weather Forecast

Almanac

Astronomy

Aug. 22, 2014 Rise Set
Actual Time 6:47 AM EDT 8:23 PM EDT
Civil Twilight 6:17 AM EDT 8:52 PM EDT
Nautical Twilight 5:41 AM EDT 9:28 PM EDT
Astronomical Twilight 5:03 AM EDT 10:06 PM EDT
Moon 4:07 AM EDT 6:31 PM EDT
Length of Visible Light 14h 34m
Length of Day
13h 35m
Tomorrow will be 2m 38s shorter.
Waning Crescent, 6% of the Moon is Illuminated
Today
Waning Crescent
Aug 25
New
Sep 2
First Quarter
Sep 8
Full
Sep 15
Last Quarter

Today's Extremes

State Highs State Lows

Community

WunderPhotos

Upload Photos

1,746,260 photos uploaded!

Nearby

Air Quality

  Air Quality AQ Index Pollutant
Yesterday Good
PM10
Yesterday Good
OZONE
Current Moderate
PM2.5
Current Good
OZONE
Friday Moderate
PM2.5
Friday Good
OZONE
Saturday Moderate
PM2.5
Saturday Good
OZONE
Sunday Moderate
OZONE
Sunday Moderate
PM2.5

Snow Depth

Station Depth Elevation
No new snow has been reported.

Earthquake Activity

City Distance Mag. Time & Date
No recent earthquake activity has been reported nearby.
Minimum magnitude displayed is 2.5.

Coastal Water Temperatures

Place Temperature
Marblehead, OH 73.9 °F

Nearby Weather Stations